Triumph, Louisiana
Current Conditions -  °F | °C
As of 8:51 PM on Friday 24 Oct 2014 (Local Time) from KBVE Reporting Station
Clear Clear  
Wind Chill: 67°   Ceiling: Unl
Heat Index: 67°   Visibility: 10mi
Dew Point: 56°   Wind: 5mph
Humidity: 68%   Direction: 320°NW
Pressure: 30.08"   Gusts: NA
Location:  29.2996°N, 89.4367°W
Report Text: KBVE 250151Z AUTO 32004KT 10SM CLR 19/13 A3008 RMK AO2 SLP187 T01940133
Loading
Personal Weather Stations






























Interactive Weather Map
Tropical Storm Tracking
New forecast layout! Learn more

10-Day Weather Forecast

Advertisements
Track Severe Weather on mobile